Kingston, Washington
Current Conditions -  °F | °C
As of 9:10 PM on Friday 28 Nov 2014 (Local Time) from KPAE Reporting Station
Light Rain Light Rain  
Wind Chill: 32°   Ceiling: 1800
Heat Index: 37°   Visibility: 4mi
Dew Point: 35°   Wind: 7mph
Humidity: 93%   Direction: 170°S
Pressure: 29.51"   Gusts: NA
Location:  47.8°N, 122.5°W
Report Text: KPAE 290510Z AUTO 17006KT 4SM -RA BR FEW005 BKN018 OVC033 03/02 A2951 RMK AO2 P0001 T00280017
Loading
Personal Weather Stations






























Interactive Weather Map New forecast layout! Learn more

10-Day Weather Forecast

Advertisements
Track Severe Weather on mobile